createdAt,value
2019-05-03T00:01:46.892Z,1.00
2019-05-03T00:03:07.254Z,1.00
2019-05-03T00:04:12.614Z,1.00
2019-05-03T00:05:29.432Z,1.00
2019-05-03T00:06:34.290Z,1.00
2019-05-03T00:07:38.876Z,1.00
2019-05-03T00:08:43.442Z,1.00
2019-05-03T00:09:48.051Z,1.00
2019-05-03T00:10:53.647Z,1.00
2019-05-03T00:11:58.218Z,1.00
2019-05-03T00:13:02.815Z,1.00
2019-05-03T00:14:07.559Z,1.00
2019-05-03T00:15:28.799Z,1.00
2019-05-03T00:16:35.115Z,1.00
2019-05-03T00:17:41.981Z,1.00
2019-05-03T00:18:46.637Z,1.00
2019-05-03T00:19:52.773Z,1.00
2019-05-03T00:20:57.474Z,1.00
2019-05-03T00:22:02.230Z,1.00
2019-05-03T00:23:06.866Z,1.00
2019-05-03T00:24:11.907Z,1.00
2019-05-03T00:25:16.639Z,1.00
2019-05-03T00:26:22.541Z,1.00
2019-05-03T00:27:27.396Z,1.00
2019-05-03T00:28:32.215Z,1.00
2019-05-03T00:29:36.879Z,1.00
2019-05-03T00:30:42.345Z,1.00
2019-05-03T00:31:47.201Z,1.00
2019-05-03T00:32:52.232Z,1.00
2019-05-03T00:34:02.264Z,1.00
2019-05-03T00:35:11.916Z,1.00
2019-05-03T00:36:30.464Z,1.00
2019-05-03T00:37:36.487Z,1.00
2019-05-03T00:38:41.905Z,1.00
2019-05-03T00:40:03.968Z,1.00
2019-05-03T00:41:08.647Z,1.00
2019-05-03T00:42:13.271Z,1.00
2019-05-03T00:43:17.869Z,1.00
2019-05-03T00:44:22.630Z,1.00
2019-05-03T00:45:27.316Z,1.00
2019-05-03T00:46:32.747Z,1.00
2019-05-03T00:47:37.441Z,1.00
2019-05-03T00:48:42.992Z,1.00
2019-05-03T00:49:48.869Z,1.00
2019-05-03T00:50:53.444Z,1.00
2019-05-03T00:51:57.966Z,1.00
2019-05-03T00:53:02.538Z,1.00
2019-05-03T00:54:07.168Z,1.00
2019-05-03T00:55:17.108Z,1.00
2019-05-03T00:56:18.064Z,1.00
2019-05-03T00:57:22.827Z,1.00
2019-05-03T00:58:27.435Z,1.00
2019-05-03T00:59:32.616Z,1.00
2019-05-03T01:00:37.427Z,1.00
2019-05-03T01:01:42.564Z,1.00
2019-05-03T01:02:47.274Z,1.00
2019-05-03T01:03:52.598Z,1.00
2019-05-03T01:04:57.476Z,1.00
2019-05-03T01:06:02.389Z,1.00
2019-05-03T01:07:07.096Z,1.00
2019-05-03T01:08:12.685Z,1.00
2019-05-03T01:09:20.008Z,1.00
2019-05-03T01:10:24.975Z,1.00
2019-05-03T01:11:29.551Z,1.00
2019-05-03T01:12:34.159Z,1.00
2019-05-03T01:13:39.689Z,1.00
2019-05-03T01:14:45.984Z,1.00
2019-05-03T01:16:11.700Z,1.00
2019-05-03T01:17:16.238Z,1.00
2019-05-03T01:18:21.793Z,1.00
2019-05-03T01:19:26.656Z,1.00
2019-05-03T01:20:31.972Z,1.00
2019-05-03T01:21:37.751Z,1.00
2019-05-03T01:22:42.534Z,1.00
2019-05-03T01:23:47.187Z,1.00
2019-05-03T01:24:51.952Z,1.00
2019-05-03T01:25:56.695Z,1.00
2019-05-03T01:27:01.997Z,1.00
2019-05-03T01:28:07.260Z,1.00
2019-05-03T01:29:13.798Z,1.00
2019-05-03T01:30:22.616Z,1.00
2019-05-03T01:31:27.655Z,1.00
2019-05-03T01:32:32.962Z,1.00
2019-05-03T01:33:37.760Z,1.00
2019-05-03T01:34:42.347Z,1.00
2019-05-03T01:35:47.868Z,1.00
2019-05-03T01:36:52.530Z,1.00
2019-05-03T01:37:57.188Z,1.00
2019-05-03T01:39:02.165Z,1.00
2019-05-03T01:40:08.770Z,1.00
2019-05-03T01:41:13.306Z,99.90
2019-05-03T01:42:17.900Z,99.90
2019-05-03T01:43:22.562Z,1.00
2019-05-03T01:44:27.150Z,1.00
2019-05-03T01:45:31.909Z,99.90
2019-05-03T01:46:36.665Z,1.00
2019-05-03T01:47:52.637Z,1.00
2019-05-03T01:49:03.532Z,1.00
2019-05-03T01:50:28.687Z,99.90
2019-05-03T01:51:56.368Z,99.90
2019-05-03T01:53:02.311Z,99.90
2019-05-03T01:54:06.929Z,1.00
2019-05-03T01:55:15.770Z,99.90
2019-05-03T01:56:18.854Z,99.90
2019-05-03T01:57:23.431Z,99.90
2019-05-03T01:58:28.020Z,99.90
2019-05-03T01:59:32.611Z,1.00
2019-05-03T02:00:37.191Z,1.00
2019-05-03T02:01:54.740Z,1.00
2019-05-03T02:03:06.286Z,1.00
2019-05-03T02:04:15.631Z,1.00
2019-05-03T02:05:40.303Z,1.00
2019-05-03T02:06:44.913Z,1.00
2019-05-03T02:07:49.472Z,99.90
2019-05-03T02:08:54.044Z,1.00
2019-05-03T02:09:58.708Z,1.00
2019-05-03T02:11:03.268Z,1.00
2019-05-03T02:12:07.938Z,1.00
2019-05-03T02:13:12.519Z,1.00
2019-05-03T02:14:17.089Z,1.00
2019-05-03T02:15:22.148Z,99.90
2019-05-03T02:16:26.903Z,1.00
2019-05-03T02:17:31.907Z,99.90
2019-05-03T02:18:36.519Z,1.00
2019-05-03T02:19:42.146Z,1.00
2019-05-03T02:20:47.032Z,1.00
2019-05-03T02:21:52.371Z,1.00
2019-05-03T02:22:57.155Z,99.90
2019-05-03T02:24:02.604Z,1.00
2019-05-03T02:25:07.498Z,99.90
2019-05-03T02:26:12.303Z,55.00
2019-05-03T02:27:16.986Z,1.00
2019-05-03T02:28:22.091Z,1.00
2019-05-03T02:29:26.837Z,1.00
2019-05-03T02:30:33.230Z,99.90
2019-05-03T02:31:37.700Z,99.90
2019-05-03T02:32:43.881Z,1.00
2019-05-03T02:33:48.613Z,1.00
2019-05-03T02:34:53.642Z,54.80
2019-05-03T02:35:58.454Z,99.90
2019-05-03T02:37:03.400Z,1.00
2019-05-03T02:38:09.242Z,1.00
2019-05-03T02:39:15.824Z,1.00
2019-05-03T02:40:23.932Z,1.00
2019-05-03T02:41:26.815Z,1.00
2019-05-03T02:42:31.412Z,1.00
2019-05-03T02:43:40.504Z,1.00
2019-05-03T02:44:46.156Z,1.00
2019-05-03T02:46:06.161Z,1.00
2019-05-03T02:47:47.149Z,1.00
2019-05-03T02:48:59.918Z,1.00
2019-05-03T02:50:11.656Z,1.00
2019-05-03T02:51:17.175Z,1.00
2019-05-03T02:52:36.532Z,1.00
2019-05-03T02:53:40.374Z,1.00
2019-05-03T02:54:46.416Z,1.00
2019-05-03T02:55:51.255Z,1.00
2019-05-03T02:56:56.100Z,71.50
2019-05-03T02:58:00.769Z,1.00
2019-05-03T02:59:06.262Z,1.00
2019-05-03T03:00:15.997Z,1.00
2019-05-03T03:01:19.449Z,1.00
2019-05-03T03:02:26.430Z,1.00
2019-05-03T03:03:31.319Z,1.00
2019-05-03T03:04:35.971Z,1.00
2019-05-03T03:05:41.154Z,1.00
2019-05-03T03:06:47.103Z,1.00
2019-05-03T03:07:55.690Z,1.00
2019-05-03T03:08:59.533Z,22.00
2019-05-03T03:10:05.784Z,99.90
2019-05-03T03:11:11.384Z,99.90
2019-05-03T03:12:18.056Z,99.90
2019-05-03T03:13:25.347Z,99.90
2019-05-03T03:14:32.850Z,1.00
2019-05-03T03:15:40.528Z,1.00
2019-05-03T03:16:50.079Z,1.00
2019-05-03T03:17:56.068Z,1.00
2019-05-03T03:19:06.232Z,1.00
2019-05-03T03:20:11.210Z,1.00
2019-05-03T03:21:17.579Z,1.00
2019-05-03T03:22:25.936Z,1.00
2019-05-03T03:23:35.506Z,94.80
2019-05-03T03:24:45.709Z,99.90
2019-05-03T03:25:55.603Z,99.90
2019-05-03T03:26:59.641Z,99.90
2019-05-03T03:28:06.723Z,1.00
2019-05-03T03:29:15.699Z,1.00
2019-05-03T03:30:48.566Z,1.00
2019-05-03T03:32:18.488Z,35.30
2019-05-03T03:33:27.677Z,1.00
2019-05-03T03:34:38.837Z,1.00
2019-05-03T03:35:42.154Z,1.00
2019-05-03T03:37:02.635Z,1.00
2019-05-03T03:37:58.300Z,14.30
2019-05-03T03:39:05.813Z,99.90
2019-05-03T03:40:09.366Z,1.00
2019-05-03T03:41:16.333Z,99.90
2019-05-03T03:42:21.976Z,1.00
2019-05-03T03:43:27.577Z,99.90
2019-05-03T03:44:32.457Z,1.00
2019-05-03T03:45:38.670Z,1.00
2019-05-03T03:46:45.767Z,1.00
2019-05-03T03:47:56.083Z,1.00
2019-05-03T03:49:01.847Z,1.00
2019-05-03T03:50:06.796Z,99.90
2019-05-03T03:51:15.549Z,1.00
2019-05-03T03:52:21.575Z,1.00
2019-05-03T03:53:26.643Z,1.00
2019-05-03T03:54:35.581Z,1.00
2019-05-03T03:55:45.593Z,1.00
2019-05-03T03:57:03.273Z,99.90
2019-05-03T03:58:02.690Z,99.90
2019-05-03T03:59:07.352Z,99.90
2019-05-03T04:00:12.232Z,99.90
2019-05-03T04:01:16.991Z,99.90
2019-05-03T04:02:21.716Z,99.90
2019-05-03T04:03:26.495Z,99.90
2019-05-03T04:04:31.238Z,99.90
2019-05-03T04:05:36.135Z,99.90
2019-05-03T04:06:40.861Z,99.90
2019-05-03T04:07:46.382Z,99.90
2019-05-03T04:08:51.470Z,99.90
2019-05-03T04:09:56.480Z,1.00
2019-05-03T04:11:01.702Z,1.00
2019-05-03T04:12:06.517Z,1.00
2019-05-03T04:13:12.821Z,1.00
2019-05-03T04:14:22.340Z,1.00
2019-05-03T04:15:45.301Z,1.00
2019-05-03T04:17:07.278Z,99.90
2019-05-03T04:18:21.822Z,5.20
2019-05-03T04:19:30.627Z,14.90
2019-05-03T04:20:36.561Z,1.00
2019-05-03T04:21:41.290Z,44.10
2019-05-03T04:22:45.880Z,1.00
2019-05-03T04:23:50.632Z,1.00
2019-05-03T04:24:55.791Z,68.60
2019-05-03T04:26:00.838Z,99.90
2019-05-03T04:27:15.536Z,99.90
2019-05-03T04:28:12.679Z,99.90
2019-05-03T04:29:17.379Z,99.90
2019-05-03T04:30:21.980Z,99.90
2019-05-03T04:31:26.573Z,1.00
2019-05-03T04:32:31.185Z,1.00
2019-05-03T04:33:35.939Z,1.00
2019-05-03T04:34:40.589Z,1.00
2019-05-03T04:35:46.519Z,1.00
2019-05-03T04:36:51.290Z,1.00
2019-05-03T04:37:56.198Z,1.00
2019-05-03T04:39:01.025Z,1.00
2019-05-03T04:40:07.375Z,1.00
2019-05-03T04:41:11.925Z,1.00
2019-05-03T04:42:16.875Z,1.00
2019-05-03T04:43:21.533Z,1.00
2019-05-03T04:44:26.209Z,1.00
2019-05-03T04:45:30.852Z,5.40
2019-05-03T04:46:35.958Z,99.90
2019-05-03T04:47:40.664Z,1.00
2019-05-03T04:48:45.252Z,1.00
2019-05-03T04:49:49.826Z,1.00
2019-05-03T04:50:54.982Z,1.00
2019-05-03T04:51:59.619Z,1.00
2019-05-03T04:53:05.666Z,1.00
2019-05-03T04:54:25.415Z,1.00
2019-05-03T04:55:30.236Z,1.00
2019-05-03T04:56:36.000Z,1.00
2019-05-03T04:57:45.866Z,1.00
2019-05-03T04:58:47.180Z,1.00
2019-05-03T04:59:51.799Z,1.00
2019-05-03T05:00:56.354Z,1.00
2019-05-03T05:02:02.229Z,1.00
2019-05-03T05:03:06.808Z,26.30
2019-05-03T05:04:11.459Z,1.00
2019-05-03T05:05:16.083Z,1.00
2019-05-03T05:06:20.730Z,1.00
2019-05-03T05:07:26.546Z,1.00
2019-05-03T05:08:31.163Z,1.00
2019-05-03T05:09:35.766Z,1.00
2019-05-03T05:10:40.509Z,1.00
2019-05-03T05:11:45.845Z,1.00
2019-05-03T05:12:50.783Z,1.00
2019-05-03T05:13:56.083Z,1.00
2019-05-03T05:15:00.881Z,1.00
2019-05-03T05:16:06.305Z,1.00
2019-05-03T05:17:12.895Z,1.00
2019-05-03T05:18:26.665Z,99.90
2019-05-03T05:19:44.527Z,1.00
2019-05-03T05:21:08.451Z,1.00
2019-05-03T05:22:15.503Z,1.00
2019-05-03T05:23:20.748Z,1.00
2019-05-03T05:24:25.662Z,99.90
2019-05-03T05:25:35.472Z,99.90
2019-05-03T05:26:49.136Z,1.00
2019-05-03T05:28:06.223Z,1.00
2019-05-03T05:29:12.304Z,1.00
2019-05-03T05:30:17.067Z,1.00
2019-05-03T05:31:21.750Z,1.00
2019-05-03T05:32:27.045Z,46.30
2019-05-03T05:33:31.708Z,1.00
2019-05-03T05:34:36.312Z,1.00
2019-05-03T05:35:40.892Z,99.90
2019-05-03T05:36:45.545Z,99.90
2019-05-03T05:37:50.118Z,1.00
2019-05-03T05:38:55.208Z,1.00
2019-05-03T05:39:59.988Z,1.00
2019-05-03T05:41:05.306Z,99.90
2019-05-03T05:42:10.114Z,99.90
2019-05-03T05:43:15.208Z,1.00
2019-05-03T05:44:20.002Z,1.00
2019-05-03T05:45:24.671Z,1.00
2019-05-03T05:46:35.159Z,1.00
2019-05-03T05:47:54.791Z,1.00
2019-05-03T05:48:59.366Z,1.00
2019-05-03T05:50:15.258Z,1.00
2019-05-03T05:51:19.914Z,99.90
2019-05-03T05:52:24.650Z,1.00
2019-05-03T05:53:35.891Z,1.00
2019-05-03T05:54:45.475Z,1.00
2019-05-03T05:56:07.675Z,58.40
2019-05-03T05:57:30.244Z,99.90
2019-05-03T05:58:55.383Z,1.00
2019-05-03T06:00:04.945Z,1.00
2019-05-03T06:01:17.204Z,1.00
2019-05-03T06:02:21.846Z,1.00
2019-05-03T06:03:26.434Z,1.00
2019-05-03T06:04:31.059Z,99.90
2019-05-03T06:05:35.687Z,1.00
2019-05-03T06:06:58.503Z,1.00
2019-05-03T06:08:26.241Z,1.00
2019-05-03T06:09:46.815Z,99.90
2019-05-03T06:11:12.599Z,1.00
2019-05-03T06:12:29.446Z,99.90
2019-05-03T06:13:41.715Z,58.10
2019-05-03T06:14:50.024Z,1.00
2019-05-03T06:16:05.136Z,1.00
2019-05-03T06:17:21.098Z,1.00
2019-05-03T06:18:30.980Z,1.00
2019-05-03T06:19:45.860Z,99.90
2019-05-03T06:20:57.431Z,1.00
2019-05-03T06:22:15.361Z,1.00
2019-05-03T06:23:27.189Z,1.00
2019-05-03T06:24:35.923Z,1.00
2019-05-03T06:25:41.715Z,1.00
2019-05-03T06:26:57.120Z,1.00
2019-05-03T06:28:16.969Z,1.00
2019-05-03T06:29:10.198Z,1.00
2019-05-03T06:30:29.050Z,99.90
2019-05-03T06:31:51.689Z,99.90
2019-05-03T06:32:56.301Z,99.90
2019-05-03T06:34:00.892Z,99.90
2019-05-03T06:35:05.642Z,99.90
2019-05-03T06:36:10.370Z,99.90
2019-05-03T06:37:16.767Z,99.90
2019-05-03T06:38:21.382Z,99.90
2019-05-03T06:39:25.984Z,99.90
2019-05-03T06:40:30.681Z,99.90
2019-05-03T06:41:35.291Z,99.90
2019-05-03T06:42:51.632Z,99.90
2019-05-03T06:43:48.763Z,99.90
2019-05-03T06:44:54.642Z,99.90
2019-05-03T06:46:00.428Z,99.90
2019-05-03T06:47:09.092Z,99.90
2019-05-03T06:48:11.741Z,99.90
2019-05-03T06:49:16.670Z,99.90
2019-05-03T06:50:27.215Z,99.90
2019-05-03T06:51:27.553Z,99.90
2019-05-03T06:52:32.147Z,99.90
2019-05-03T06:53:36.771Z,99.90
2019-05-03T06:54:41.398Z,99.90
2019-05-03T06:55:48.454Z,99.90
2019-05-03T06:56:52.343Z,99.90
2019-05-03T06:57:56.948Z,99.90
2019-05-03T06:59:01.641Z,99.90
2019-05-03T07:00:25.147Z,99.90
2019-05-03T07:01:36.057Z,99.90
2019-05-03T07:02:51.609Z,99.90
2019-05-03T07:04:05.088Z,99.90
2019-05-03T07:05:17.193Z,99.90
2019-05-03T07:06:37.375Z,99.90
2019-05-03T07:07:46.911Z,99.90
2019-05-03T07:08:56.207Z,99.90
2019-05-03T07:10:05.897Z,99.90
2019-05-03T07:11:10.464Z,99.90
2019-05-03T07:12:15.254Z,99.90
2019-05-03T07:13:19.897Z,99.90
2019-05-03T07:14:24.751Z,99.90
2019-05-03T07:15:29.947Z,99.90
2019-05-03T07:16:35.369Z,95.40
2019-05-03T07:17:40.145Z,93.90
2019-05-03T07:18:45.470Z,95.80
2019-05-03T07:19:50.224Z,94.80
2019-05-03T07:20:57.301Z,99.90
2019-05-03T07:22:01.896Z,91.30
2019-05-03T07:23:06.458Z,95.10
2019-05-03T07:24:11.046Z,65.20
2019-05-03T07:25:16.554Z,37.70
2019-05-03T07:26:21.291Z,30.20
2019-05-03T07:27:25.891Z,50.90
2019-05-03T07:28:43.247Z,86.90
2019-05-03T07:29:36.809Z,37.80
2019-05-03T07:30:41.429Z,13.10
2019-05-03T07:31:45.999Z,9.70
2019-05-03T07:32:55.662Z,17.60
2019-05-03T07:34:00.261Z,15.10
2019-05-03T07:35:04.912Z,27.30
2019-05-03T07:36:10.700Z,25.90
2019-05-03T07:37:15.327Z,24.50
2019-05-03T07:38:20.173Z,20.00
2019-05-03T07:39:24.787Z,27.00
2019-05-03T07:40:29.369Z,23.80
2019-05-03T07:41:35.651Z,43.20
2019-05-03T07:42:40.473Z,60.70
2019-05-03T07:43:45.182Z,50.00
2019-05-03T07:44:49.880Z,51.10
2019-05-03T07:45:55.220Z,42.30
2019-05-03T07:47:00.088Z,76.00
2019-05-03T07:48:04.887Z,24.30
2019-05-03T07:49:09.592Z,23.10
2019-05-03T07:50:15.315Z,65.70
2019-05-03T07:51:20.053Z,21.60
2019-05-03T07:52:25.885Z,19.90
2019-05-03T07:53:30.822Z,20.20
2019-05-03T07:54:35.523Z,12.30
2019-05-03T07:55:57.998Z,23.80
2019-05-03T07:57:06.938Z,27.00
2019-05-03T07:58:15.084Z,24.40
2019-05-03T07:59:19.803Z,19.00
2019-05-03T08:00:25.912Z,13.60
2019-05-03T08:01:35.574Z,1.00
2019-05-03T08:02:40.048Z,4.20
2019-05-03T08:03:45.112Z,1.00
2019-05-03T08:04:50.806Z,1.00
2019-05-03T08:05:55.487Z,1.00
2019-05-03T08:07:00.098Z,1.00
2019-05-03T08:08:04.840Z,1.00
2019-05-03T08:09:09.570Z,1.00
2019-05-03T08:10:15.291Z,1.00
2019-05-03T08:11:20.183Z,1.00
2019-05-03T08:12:24.924Z,1.00
2019-05-03T08:13:29.566Z,1.00
2019-05-03T08:14:35.716Z,1.00
2019-05-03T08:15:40.567Z,1.00
2019-05-03T08:16:45.597Z,1.00
2019-05-03T08:17:50.307Z,1.00
2019-05-03T08:18:55.848Z,1.00
2019-05-03T08:20:00.709Z,1.00
2019-05-03T08:21:05.767Z,1.00
2019-05-03T08:22:11.625Z,1.00
2019-05-03T08:23:26.761Z,1.00
2019-05-03T08:24:22.624Z,1.00
2019-05-03T08:25:27.178Z,1.00
2019-05-03T08:26:31.786Z,1.00
2019-05-03T08:27:36.360Z,1.00
2019-05-03T08:28:40.972Z,1.00
2019-05-03T08:29:45.528Z,1.00
2019-05-03T08:31:12.065Z,1.00
2019-05-03T08:32:36.524Z,1.00
2019-05-03T08:33:52.090Z,1.00
2019-05-03T08:35:31.190Z,1.00
2019-05-03T08:37:12.827Z,1.00
2019-05-03T08:38:17.444Z,1.00
2019-05-03T08:39:22.079Z,1.00
2019-05-03T08:40:29.464Z,1.00
2019-05-03T08:41:35.687Z,1.00
2019-05-03T08:42:40.322Z,1.00
2019-05-03T08:43:44.923Z,1.00
2019-05-03T08:44:49.643Z,1.00
2019-05-03T08:45:55.364Z,1.00
2019-05-03T08:47:00.243Z,1.00
2019-05-03T08:48:05.597Z,1.00
2019-05-03T08:49:10.315Z,1.00
2019-05-03T08:50:20.975Z,1.00
2019-05-03T08:51:21.327Z,1.00
2019-05-03T08:52:25.920Z,1.00
2019-05-03T08:53:30.604Z,1.00
2019-05-03T08:54:35.229Z,1.00
2019-05-03T08:55:39.881Z,1.00
2019-05-03T08:56:45.128Z,1.00
2019-05-03T08:57:49.947Z,1.00
2019-05-03T08:58:55.450Z,1.00
2019-05-03T09:00:00.336Z,1.00
2019-05-03T09:01:05.892Z,1.00
2019-05-03T09:02:16.511Z,1.00
2019-05-03T09:03:16.898Z,1.00
2019-05-03T09:04:34.222Z,1.00
2019-05-03T09:05:27.824Z,1.00
2019-05-03T09:06:32.400Z,1.00
2019-05-03T09:07:37.076Z,1.00
2019-05-03T09:08:41.646Z,1.00
2019-05-03T09:10:12.206Z,1.00
2019-05-03T09:11:15.617Z,1.00
2019-05-03T09:12:20.273Z,1.00
2019-05-03T09:13:25.240Z,1.00
2019-05-03T09:14:41.370Z,1.00
2019-05-03T09:15:36.732Z,1.00
2019-05-03T09:16:41.365Z,1.00
2019-05-03T09:17:46.113Z,1.00
2019-05-03T09:18:50.869Z,1.00
2019-05-03T09:19:55.512Z,1.00
2019-05-03T09:21:00.110Z,1.00
2019-05-03T09:22:06.683Z,1.00
2019-05-03T09:23:11.366Z,1.00
2019-05-03T09:24:16.126Z,1.00
2019-05-03T09:25:20.732Z,1.00
2019-05-03T09:26:29.251Z,1.00
2019-05-03T09:27:31.797Z,1.00
2019-05-03T09:28:36.419Z,1.00
2019-05-03T09:29:44.044Z,1.00
2019-05-03T09:30:47.397Z,1.00
2019-05-03T09:31:52.051Z,1.00
2019-05-03T09:32:56.658Z,1.00
2019-05-03T09:34:01.347Z,1.00
2019-05-03T09:35:06.056Z,1.00
2019-05-03T09:36:10.626Z,1.00
2019-05-03T09:37:15.556Z,1.00
2019-05-03T09:38:20.212Z,1.00
2019-05-03T09:39:24.867Z,1.00
2019-05-03T09:40:29.474Z,1.00
2019-05-03T09:41:34.763Z,1.00
2019-05-03T09:42:39.480Z,1.00
2019-05-03T09:43:45.003Z,1.00
2019-05-03T09:44:52.469Z,1.00
2019-05-03T09:45:56.440Z,1.00
2019-05-03T09:47:01.091Z,1.00
2019-05-03T09:48:06.682Z,1.00
2019-05-03T09:49:15.854Z,1.00
2019-05-03T09:50:17.883Z,1.00
2019-05-03T09:51:22.603Z,1.00
2019-05-03T09:52:27.210Z,1.00
2019-05-03T09:53:36.587Z,1.00
2019-05-03T09:54:46.418Z,1.00
2019-05-03T09:55:50.977Z,1.00
2019-05-03T09:56:59.490Z,1.00
2019-05-03T09:58:05.470Z,1.00
2019-05-03T09:59:10.393Z,1.00
2019-05-03T10:00:17.291Z,1.00
2019-05-03T10:01:22.126Z,1.00
2019-05-03T10:02:26.906Z,1.00
2019-05-03T10:03:31.511Z,1.00
2019-05-03T10:04:36.739Z,1.00
2019-05-03T10:05:41.672Z,1.00
2019-05-03T10:06:46.282Z,1.00
2019-05-03T10:07:50.870Z,1.00
2019-05-03T10:08:55.669Z,1.00
2019-05-03T10:10:00.365Z,1.00
2019-05-03T10:11:11.184Z,1.00
2019-05-03T10:12:19.459Z,1.00
2019-05-03T10:13:26.898Z,1.00
2019-05-03T10:14:30.318Z,1.00
2019-05-03T10:15:39.933Z,1.00
2019-05-03T10:16:51.938Z,1.00
2019-05-03T10:17:59.774Z,1.00
2019-05-03T10:19:04.406Z,1.00
2019-05-03T10:20:11.047Z,1.00
2019-05-03T10:21:15.732Z,1.00
2019-05-03T10:22:25.241Z,1.00
2019-05-03T10:23:39.821Z,1.00
2019-05-03T10:24:45.257Z,1.00
2019-05-03T10:25:50.252Z,1.00
2019-05-03T10:26:55.271Z,1.00
2019-05-03T10:28:01.122Z,1.00
2019-05-03T10:29:05.799Z,1.00
2019-05-03T10:30:13.402Z,1.00
2019-05-03T10:31:17.288Z,1.00
2019-05-03T10:32:35.381Z,1.00
2019-05-03T10:33:53.070Z,1.00
2019-05-03T10:35:00.665Z,1.00
2019-05-03T10:36:06.409Z,1.00
2019-05-03T10:37:29.456Z,1.00
2019-05-03T10:38:34.266Z,1.00
2019-05-03T10:39:39.206Z,1.00
2019-05-03T10:40:45.233Z,1.00
2019-05-03T10:41:49.963Z,1.00
2019-05-03T10:42:55.267Z,1.00
2019-05-03T10:44:00.183Z,1.00
2019-05-03T10:45:05.354Z,1.00
2019-05-03T10:46:09.944Z,1.00
2019-05-03T10:47:14.761Z,1.00
2019-05-03T10:48:19.603Z,1.00
2019-05-03T10:49:24.565Z,1.00
2019-05-03T10:50:29.326Z,1.00
2019-05-03T10:51:38.227Z,1.00
2019-05-03T10:52:48.512Z,1.00
2019-05-03T10:53:57.043Z,1.00
2019-05-03T10:55:01.759Z,1.00
2019-05-03T10:56:26.767Z,1.00
2019-05-03T10:57:31.495Z,1.00
2019-05-03T10:58:36.106Z,1.00
2019-05-03T10:59:40.700Z,1.00
2019-05-03T11:00:52.763Z,1.00
2019-05-03T11:02:19.518Z,1.00
2019-05-03T11:03:24.164Z,1.00
2019-05-03T11:04:29.150Z,1.00
2019-05-03T11:05:34.799Z,1.00
2019-05-03T11:06:39.518Z,1.00
2019-05-03T11:07:45.108Z,1.00
2019-05-03T11:08:49.923Z,1.00
2019-05-03T11:09:55.176Z,1.00
2019-05-03T11:10:59.996Z,1.00
2019-05-03T11:12:05.415Z,1.00
2019-05-03T11:13:10.182Z,1.00
2019-05-03T11:14:15.056Z,1.00
2019-05-03T11:15:19.763Z,1.00
2019-05-03T11:16:25.513Z,1.00
2019-05-03T11:17:30.246Z,1.00
2019-05-03T11:18:34.934Z,1.00
2019-05-03T11:19:39.576Z,1.00
2019-05-03T11:20:45.289Z,1.00
2019-05-03T11:21:50.241Z,1.00
2019-05-03T11:22:54.914Z,1.00
2019-05-03T11:23:59.540Z,1.00
2019-05-03T11:25:05.188Z,1.00
2019-05-03T11:26:29.214Z,1.00
2019-05-03T11:27:40.056Z,1.00
2019-05-03T11:28:44.906Z,1.00
2019-05-03T11:29:49.826Z,1.00
2019-05-03T11:31:01.331Z,1.00
2019-05-03T11:32:23.103Z,1.00
2019-05-03T11:33:32.957Z,1.00
2019-05-03T11:34:55.262Z,1.00
2019-05-03T11:36:10.074Z,1.00
2019-05-03T11:37:39.563Z,1.00
2019-05-03T11:38:46.642Z,1.00
2019-05-03T11:39:51.779Z,1.00
2019-05-03T11:40:56.412Z,1.00
2019-05-03T11:42:00.997Z,1.00
2019-05-03T11:43:05.649Z,1.00
2019-05-03T11:44:28.523Z,1.00
2019-05-03T11:45:35.169Z,1.00
2019-05-03T11:46:39.483Z,1.00
2019-05-03T11:47:45.720Z,1.00
2019-05-03T11:48:50.622Z,1.00
2019-05-03T11:49:55.328Z,1.00
2019-05-03T11:50:59.925Z,1.00
2019-05-03T11:52:06.559Z,1.00
2019-05-03T11:53:14.411Z,1.00
2019-05-03T11:54:19.812Z,1.00
2019-05-03T11:55:26.815Z,1.00
2019-05-03T11:56:31.685Z,1.00
2019-05-03T11:57:36.322Z,1.00
2019-05-03T11:58:40.935Z,1.00
2019-05-03T11:59:45.540Z,1.00
2019-05-03T12:01:11.843Z,1.00
2019-05-03T12:02:15.347Z,1.00
2019-05-03T12:03:28.325Z,1.00
2019-05-03T12:04:32.952Z,1.00
2019-05-03T12:05:37.554Z,1.00
2019-05-03T12:06:42.158Z,1.00
2019-05-03T12:07:46.769Z,1.00
2019-05-03T12:08:51.448Z,1.00
2019-05-03T12:09:56.267Z,1.00
2019-05-03T12:11:01.711Z,1.00
2019-05-03T12:12:07.562Z,1.00
2019-05-03T12:13:18.587Z,1.00
2019-05-03T12:14:24.498Z,1.00
2019-05-03T12:15:29.318Z,1.00
2019-05-03T12:17:08.756Z,1.00
2019-05-03T12:17:52.005Z,1.00
2019-05-03T12:18:53.361Z,1.00
2019-05-03T12:19:57.026Z,1.00
2019-05-03T12:21:01.755Z,1.00
2019-05-03T12:22:07.752Z,1.00
2019-05-03T12:23:15.956Z,1.00
2019-05-03T12:24:20.019Z,1.00
2019-05-03T12:25:26.124Z,1.00
2019-05-03T12:26:41.688Z,1.00
2019-05-03T12:27:37.610Z,1.00
2019-05-03T12:28:44.646Z,1.00
2019-05-03T12:29:48.563Z,1.00
2019-05-03T12:30:53.196Z,1.00
2019-05-03T12:31:57.846Z,1.00
2019-05-03T12:33:02.529Z,1.00
2019-05-03T12:34:07.091Z,1.00
2019-05-03T12:35:11.807Z,1.00
2019-05-03T12:36:16.603Z,1.00
2019-05-03T12:37:21.178Z,1.00
2019-05-03T12:38:25.925Z,1.00
2019-05-03T12:39:30.844Z,1.00
2019-05-03T12:40:35.651Z,1.00
2019-05-03T12:41:40.245Z,1.00
2019-05-03T12:42:45.449Z,1.00
2019-05-03T12:43:50.430Z,1.00
2019-05-03T12:44:55.191Z,1.00
2019-05-03T12:45:59.880Z,1.00
2019-05-03T12:47:06.014Z,1.00
2019-05-03T12:48:11.976Z,1.00
2019-05-03T12:49:16.567Z,1.00
2019-05-03T12:50:21.235Z,1.00
2019-05-03T12:51:25.995Z,1.00
2019-05-03T12:52:31.035Z,1.00
2019-05-03T12:53:36.095Z,1.00
2019-05-03T12:54:40.741Z,1.00
2019-05-03T12:55:45.379Z,1.00
2019-05-03T12:56:50.127Z,1.00
2019-05-03T12:57:55.572Z,1.00
2019-05-03T12:59:05.814Z,1.00
2019-05-03T13:00:22.556Z,1.00
2019-05-03T13:01:45.331Z,1.00
2019-05-03T13:03:11.566Z,1.00
2019-05-03T13:04:19.432Z,1.00
2019-05-03T13:05:24.875Z,1.00
2019-05-03T13:06:32.167Z,1.00
2019-05-03T13:07:45.487Z,1.00
2019-05-03T13:08:51.516Z,1.00
2019-05-03T13:09:56.101Z,1.00
2019-05-03T13:11:00.779Z,1.00
2019-05-03T13:12:05.773Z,1.00
2019-05-03T13:13:10.384Z,1.00
2019-05-03T13:14:15.698Z,1.00
2019-05-03T13:15:20.524Z,1.00
2019-05-03T13:16:25.174Z,1.00
2019-05-03T13:17:36.622Z,1.00
2019-05-03T13:18:41.244Z,1.00
2019-05-03T13:19:45.903Z,1.00
2019-05-03T13:20:50.520Z,1.00
2019-05-03T13:21:55.623Z,1.00
2019-05-03T13:23:00.331Z,1.00
2019-05-03T13:24:05.593Z,1.00
2019-05-03T13:25:11.332Z,1.00
2019-05-03T13:26:16.004Z,1.00
2019-05-03T13:27:20.644Z,1.00
2019-05-03T13:28:25.484Z,1.00
2019-05-03T13:29:30.194Z,1.00
2019-05-03T13:30:34.907Z,1.00
2019-05-03T13:31:39.576Z,1.00
2019-05-03T13:32:45.644Z,1.00
2019-05-03T13:33:50.516Z,1.00
2019-05-03T13:34:55.383Z,1.00
2019-05-03T13:36:00.570Z,1.00
2019-05-03T13:37:05.155Z,1.00
2019-05-03T13:38:09.823Z,1.00
2019-05-03T13:39:14.891Z,1.00
2019-05-03T13:40:19.972Z,1.00
2019-05-03T13:41:25.019Z,1.00
2019-05-03T13:42:29.821Z,1.00
2019-05-03T13:43:34.919Z,1.00
2019-05-03T13:44:40.297Z,1.00
2019-05-03T13:45:45.207Z,1.00
2019-05-03T13:46:50.005Z,1.00
2019-05-03T13:47:55.273Z,1.00
2019-05-03T13:49:00.231Z,1.00
2019-05-03T13:50:05.664Z,1.00
2019-05-03T13:51:10.271Z,1.00
2019-05-03T13:52:14.976Z,1.00
2019-05-03T13:53:21.496Z,1.00
2019-05-03T13:54:26.111Z,1.00
2019-05-03T13:55:30.674Z,1.00
2019-05-03T13:56:35.509Z,1.00
2019-05-03T13:57:40.190Z,1.00
2019-05-03T13:58:44.807Z,1.00
2019-05-03T13:59:49.484Z,1.00
2019-05-03T14:00:54.974Z,1.00
2019-05-03T14:02:14.451Z,1.00
2019-05-03T14:03:06.278Z,1.00
2019-05-03T14:04:11.095Z,1.00
2019-05-03T14:05:15.881Z,1.00
2019-05-03T14:06:20.542Z,1.00
2019-05-03T14:07:25.269Z,1.00
2019-05-03T14:08:29.910Z,1.00
2019-05-03T14:09:34.918Z,1.00
2019-05-03T14:10:40.023Z,1.00
2019-05-03T14:11:44.885Z,1.00
2019-05-03T14:12:49.649Z,1.00
2019-05-03T14:13:55.188Z,1.00
2019-05-03T14:15:00.109Z,1.00
2019-05-03T14:16:05.734Z,1.00
2019-05-03T14:17:11.556Z,1.00
2019-05-03T14:18:16.282Z,1.00
2019-05-03T14:19:28.374Z,1.00
2019-05-03T14:20:48.506Z,1.00
2019-05-03T14:21:54.738Z,1.00
2019-05-03T14:22:59.421Z,1.00
2019-05-03T14:24:10.343Z,1.00
2019-05-03T14:25:15.305Z,1.00
2019-05-03T14:26:20.030Z,1.00
2019-05-03T14:27:25.416Z,1.00
2019-05-03T14:28:30.434Z,1.00
2019-05-03T14:29:36.116Z,1.00
2019-05-03T14:30:40.950Z,1.00
2019-05-03T14:31:45.840Z,1.00
2019-05-03T14:32:50.560Z,1.00
2019-05-03T14:33:55.818Z,1.00
2019-05-03T14:35:00.741Z,1.00
2019-05-03T14:36:05.535Z,1.00
2019-05-03T14:37:10.234Z,1.00
2019-05-03T14:38:15.257Z,1.00
2019-05-03T14:39:20.041Z,1.00
2019-05-03T14:40:25.212Z,1.00
2019-05-03T14:41:30.192Z,1.00
2019-05-03T14:42:34.859Z,1.00
2019-05-03T14:43:39.654Z,1.00
2019-05-03T14:44:44.354Z,1.00
2019-05-03T14:45:49.178Z,1.00
2019-05-03T14:46:56.657Z,1.00
2019-05-03T14:48:00.448Z,1.00